Austin, Texas
Traffic Map
Current Weather Conditions
Austin, Texas
Few Clouds
Few Clouds
26°
Feels Like: 27°
Wind Chill: 26° Ceiling: Unl
Heat Index: 27° Visibility: 10mi
Dew Point: 15° Wind: 5mph
Humidity: 50% Direction: 60° (ENE)
Pressure: 30in Gusts: 0mph
Raw Report DataKATT 202251Z AUTO 06004KT 10SM FEW050 26/15 A3000 RMK AO2 SLP150 T02610150
Traffic Incident Summary
Active as of:
Severity:
Category:
InformationThere was an issue retrieving the traffic information for this location. Please try a different location or try again shortly.
Advertisements
Track Severe Weather on mobile